createdAt,value
2019-02-05T12:59:52.218Z,9.39
2019-02-05T13:00:58.282Z,9.19
2019-02-05T13:01:52.547Z,6.59
2019-02-05T13:02:50.775Z,7.80
2019-02-05T13:03:51.082Z,8.00
2019-02-05T13:04:57.329Z,8.19
2019-02-05T13:05:52.695Z,8.19
2019-02-05T13:06:50.654Z,9.30
2019-02-05T13:07:50.924Z,7.19
2019-02-05T13:08:50.660Z,92.69
2019-02-05T13:09:51.045Z,166.50
2019-02-05T13:11:19.123Z,13.89
2019-02-05T13:12:11.038Z,17.89
2019-02-05T13:14:10.076Z,25.70
2019-02-05T13:15:10.167Z,26.20
2019-02-05T13:16:10.077Z,22.00
2019-02-05T13:17:10.343Z,21.29
2019-02-05T13:18:10.184Z,29.79
2019-02-05T13:19:11.234Z,23.00
2019-02-05T13:20:10.119Z,23.39
2019-02-05T13:21:09.958Z,20.60
2019-02-05T13:22:10.092Z,26.50
2019-02-05T13:23:09.952Z,23.60
2019-02-05T13:24:09.601Z,23.50
2019-02-05T13:25:10.003Z,25.00
2019-02-05T13:26:09.833Z,24.10
2019-02-05T13:27:09.702Z,23.60
2019-02-05T13:28:09.782Z,25.70
2019-02-05T13:29:09.698Z,28.20
2019-02-05T13:30:09.816Z,23.89
2019-02-05T13:31:10.316Z,24.29
2019-02-05T13:32:09.863Z,22.20
2019-02-05T13:33:09.953Z,22.10
2019-02-05T13:34:09.227Z,18.50
2019-02-05T13:35:10.419Z,21.39
2019-02-05T13:36:09.744Z,18.39
2019-02-05T13:37:09.506Z,17.50
2019-02-05T13:38:09.534Z,25.10
2019-02-05T13:39:09.712Z,20.79
2019-02-05T13:40:09.750Z,25.39
2019-02-05T13:41:11.347Z,24.50
2019-02-05T13:42:09.410Z,19.89
2019-02-05T13:43:09.379Z,26.39
2019-02-05T13:44:09.549Z,23.79
2019-02-05T13:45:09.021Z,21.10
2019-02-05T13:46:09.523Z,23.89
2019-02-05T13:47:09.332Z,21.20
2019-02-05T13:48:09.276Z,18.60
2019-02-05T13:49:09.322Z,24.10
2019-02-05T13:50:09.815Z,22.10
2019-02-05T13:51:09.421Z,25.60
2019-02-05T13:52:09.588Z,26.50
2019-02-05T13:53:09.207Z,31.29
2019-02-05T13:54:09.328Z,26.00
2019-02-05T13:55:09.183Z,27.10
2019-02-05T13:56:09.337Z,23.70
2019-02-05T13:57:09.004Z,29.20
2019-02-05T13:58:09.066Z,26.00
2019-02-05T13:59:08.998Z,28.00
2019-02-05T14:00:08.939Z,24.10
2019-02-05T14:01:19.571Z,26.70
2019-02-05T14:02:10.365Z,27.39
2019-02-05T14:03:08.583Z,26.29
2019-02-05T14:04:08.728Z,27.60
2019-02-05T14:05:09.412Z,29.70
2019-02-05T14:06:08.879Z,23.29
2019-02-05T14:07:09.248Z,25.10
2019-02-05T14:08:08.851Z,25.89
2019-02-05T14:09:10.651Z,22.60
2019-02-05T14:10:08.966Z,24.70
2019-02-05T14:11:08.886Z,26.50
2019-02-05T14:12:08.882Z,19.79
2019-02-05T14:13:08.720Z,24.60
2019-02-05T14:14:08.829Z,25.00
2019-02-05T14:15:08.834Z,24.89
2019-02-05T14:16:08.982Z,25.79
2019-02-05T14:17:08.665Z,29.50
2019-02-05T14:18:08.891Z,23.79
2019-02-05T14:19:08.718Z,23.29
2019-02-05T14:20:08.561Z,21.79
2019-02-05T14:21:08.899Z,22.60
2019-02-05T14:22:09.076Z,23.60
2019-02-05T14:23:08.836Z,18.79
2019-02-05T14:24:08.397Z,24.70
2019-02-05T14:25:08.380Z,24.10
2019-02-05T14:26:08.735Z,23.50
2019-02-05T14:27:08.528Z,21.50
2019-02-05T14:28:08.419Z,21.70
2019-02-05T14:29:08.710Z,18.89
2019-02-05T14:30:08.406Z,21.10
2019-02-05T14:31:08.948Z,22.00
2019-02-05T14:32:08.519Z,23.89
2019-02-05T14:33:08.498Z,25.39
2019-02-05T14:34:08.234Z,20.50
2019-02-05T14:35:08.309Z,20.79
2019-02-05T14:36:08.545Z,25.89
2019-02-05T14:37:08.428Z,23.89
2019-02-05T14:38:08.254Z,22.00
2019-02-05T14:39:08.616Z,22.70
2019-02-05T14:40:08.329Z,24.79
2019-02-05T14:41:08.460Z,21.89
2019-02-05T14:42:08.090Z,24.29
2019-02-05T14:43:08.417Z,28.50
2019-02-05T14:44:08.386Z,28.79
2019-02-05T14:45:08.078Z,24.89
2019-02-05T14:46:08.595Z,28.29
2019-02-05T14:47:08.462Z,27.00
2019-02-05T14:48:08.524Z,28.79
2019-02-05T14:49:08.015Z,26.39
2019-02-05T14:50:07.988Z,27.89
2019-02-05T14:51:08.190Z,32.00
2019-02-05T14:52:08.224Z,29.39
2019-02-05T14:53:08.660Z,33.59
2019-02-05T14:54:09.189Z,34.09
2019-02-05T14:55:08.145Z,33.40
2019-02-05T14:56:08.065Z,32.79
2019-02-05T14:57:08.724Z,33.70
2019-02-05T14:58:07.877Z,31.39
2019-02-05T14:59:08.127Z,32.59
2019-02-05T15:00:07.936Z,35.40
2019-02-05T15:01:08.364Z,29.10
2019-02-05T15:04:10.037Z,31.39
2019-02-05T15:05:09.968Z,32.00
2019-02-05T15:06:09.501Z,34.09
2019-02-05T15:07:09.855Z,29.60
2019-02-05T15:08:10.018Z,41.40
2019-02-05T15:09:09.596Z,27.79
2019-02-05T15:10:09.413Z,32.00
2019-02-05T15:11:09.421Z,35.00
2019-02-05T15:12:09.384Z,34.09
2019-02-05T15:13:10.222Z,28.00
2019-02-05T15:14:09.637Z,31.39
2019-02-05T15:15:09.865Z,36.20
2019-02-05T15:16:10.124Z,32.00
2019-02-05T15:17:09.634Z,34.79
2019-02-05T15:18:09.477Z,32.59
2019-02-05T15:19:09.262Z,32.20
2019-02-05T15:20:09.638Z,27.20
2019-02-05T15:21:09.517Z,38.29
2019-02-05T15:22:09.569Z,36.40
2019-02-05T15:23:09.374Z,33.20
2019-02-05T15:24:09.498Z,32.59
2019-02-05T15:25:09.303Z,35.79
2019-02-05T15:26:08.884Z,34.59
2019-02-05T15:27:08.808Z,35.70
2019-02-05T15:28:09.275Z,36.50
2019-02-05T15:29:09.221Z,37.29
2019-02-05T15:30:08.861Z,34.09
2019-02-05T15:31:09.110Z,31.89
2019-02-05T15:32:08.661Z,33.70
2019-02-05T15:33:08.971Z,28.39
2019-02-05T15:34:09.073Z,32.29
2019-02-05T15:35:08.565Z,35.00
2019-02-05T15:36:08.962Z,31.29
2019-02-05T15:37:09.052Z,32.29
2019-02-05T15:38:09.087Z,31.00
2019-02-05T15:39:09.233Z,31.79
2019-02-05T15:40:09.018Z,28.70
2019-02-05T15:41:08.349Z,32.70
2019-02-05T15:42:08.304Z,29.89
2019-02-05T15:43:08.632Z,31.89
2019-02-05T15:44:08.432Z,27.00
2019-02-05T15:45:08.214Z,30.00
2019-02-05T15:46:08.154Z,18.39
2019-02-05T15:47:08.403Z,23.39
2019-02-05T15:48:08.265Z,24.29
2019-02-05T15:49:08.045Z,24.50
2019-02-05T15:50:08.183Z,22.20
2019-02-05T15:51:08.779Z,22.00
2019-02-05T15:52:08.387Z,23.10
2019-02-05T15:53:08.044Z,22.00
2019-02-05T15:55:07.839Z,20.79
2019-02-05T15:56:08.053Z,17.89
2019-02-05T15:57:07.743Z,22.20
2019-02-05T15:58:07.985Z,21.00
2019-02-05T15:59:07.850Z,17.39
2019-02-05T16:00:08.057Z,22.70
2019-02-05T16:01:08.000Z,19.39
2019-02-05T16:02:07.891Z,18.89
2019-02-05T16:37:06.752Z,17.39
2019-02-05T16:48:06.118Z,17.60
2019-02-05T16:50:05.954Z,16.79
2019-02-05T16:53:06.016Z,18.70
2019-02-05T16:54:06.475Z,19.29
2019-02-05T16:57:05.875Z,22.29
2019-02-05T17:17:05.119Z,20.70
2019-02-05T17:18:05.084Z,17.50
2019-02-05T17:23:05.015Z,19.89
2019-02-05T17:24:05.891Z,21.20
2019-02-05T17:25:04.907Z,18.10
2019-02-05T17:26:04.978Z,17.70
2019-02-05T17:27:05.115Z,18.39
2019-02-05T17:28:04.813Z,22.79
2019-02-05T17:29:05.051Z,21.10
2019-02-05T17:30:04.833Z,20.00
2019-02-05T17:31:04.760Z,25.20
2019-02-05T17:32:07.670Z,22.39
2019-02-05T17:33:04.696Z,16.00
2019-02-05T17:34:04.799Z,24.39
2019-02-05T17:35:04.688Z,23.39
2019-02-05T17:36:04.592Z,23.50
2019-02-05T17:37:05.039Z,24.70
2019-02-05T17:38:05.158Z,23.10
2019-02-05T17:39:04.483Z,28.10
2019-02-05T17:40:05.119Z,30.70
2019-02-05T17:41:04.753Z,31.39
2019-02-05T17:42:04.468Z,28.00
2019-02-05T17:43:04.534Z,27.39
2019-02-05T17:44:04.634Z,26.60
2019-02-05T17:45:04.436Z,29.79
2019-02-05T17:46:05.903Z,22.10
2019-02-05T17:47:04.764Z,26.70
2019-02-05T17:48:04.493Z,28.89
2019-02-05T17:49:04.120Z,28.00
2019-02-05T17:50:04.106Z,30.60
2019-02-05T17:51:04.217Z,26.79
2019-02-05T17:52:04.706Z,25.79
2019-02-05T17:53:04.217Z,25.10
2019-02-05T17:54:03.966Z,29.89
2019-02-05T17:55:04.024Z,30.89
2019-02-05T17:56:03.950Z,32.00
2019-02-05T17:57:04.083Z,26.10
2019-02-05T17:58:03.953Z,31.39
2019-02-05T17:59:04.021Z,27.60
2019-02-05T18:00:04.415Z,23.60
2019-02-05T18:01:03.872Z,26.60
2019-02-05T18:02:04.686Z,21.39
2019-02-05T18:03:03.997Z,26.00
2019-02-05T18:04:03.873Z,27.29
2019-02-05T18:05:04.209Z,28.10
2019-02-05T18:06:03.841Z,30.39
2019-02-05T18:07:04.247Z,37.59
2019-02-05T18:08:03.703Z,30.39
2019-02-05T18:09:03.723Z,37.40
2019-02-05T18:10:03.634Z,35.40
2019-02-05T18:11:03.732Z,30.50
2019-02-05T18:12:03.556Z,28.70
2019-02-05T18:13:03.696Z,23.39
2019-02-05T18:14:03.917Z,31.00
2019-02-05T18:15:03.536Z,33.70
2019-02-05T18:16:03.847Z,36.59
2019-02-05T18:17:04.080Z,32.90
2019-02-05T18:18:03.710Z,29.29
2019-02-05T18:19:03.860Z,30.10
2019-02-05T18:20:03.380Z,30.50
2019-02-05T18:21:03.400Z,26.39
2019-02-05T18:22:03.422Z,27.10
2019-02-05T18:23:03.366Z,26.70
2019-02-05T18:24:03.438Z,23.29
2019-02-05T18:25:03.656Z,26.10
2019-02-05T18:26:03.436Z,24.00
2019-02-05T18:27:03.268Z,24.00
2019-02-05T18:28:04.264Z,27.70
2019-02-05T18:29:03.398Z,30.60
2019-02-05T18:30:03.302Z,33.29
2019-02-05T18:31:03.267Z,39.09
2019-02-05T18:32:03.052Z,37.20
2019-02-05T18:33:05.814Z,43.09
2019-02-05T18:34:03.726Z,44.79
2019-02-05T18:35:03.098Z,42.70
2019-02-05T18:36:03.200Z,46.70
2019-02-05T18:37:03.522Z,44.40
2019-02-05T18:38:02.908Z,36.50
2019-02-05T18:39:03.536Z,29.20
2019-02-05T18:40:03.023Z,36.59
2019-02-05T18:41:03.312Z,32.70
2019-02-05T18:42:02.923Z,34.20
2019-02-05T18:43:02.836Z,28.79
2019-02-05T18:44:02.743Z,24.79
2019-02-05T18:45:03.009Z,28.60
2019-02-05T18:46:03.228Z,36.40
2019-02-05T18:47:02.738Z,31.29
2019-02-05T18:48:03.523Z,52.29
2019-02-05T18:49:05.541Z,45.79
2019-02-05T18:50:02.781Z,44.59
2019-02-05T18:51:02.720Z,40.20
2019-02-05T18:52:03.052Z,57.29
2019-02-05T18:53:03.428Z,72.50
2019-02-05T18:54:05.059Z,91.09
2019-02-05T18:55:02.471Z,71.50
2019-02-05T18:56:02.460Z,62.40
2019-02-05T18:57:02.451Z,74.19
2019-02-05T18:58:09.288Z,61.79
2019-02-05T18:59:03.489Z,63.50
2019-02-05T19:00:02.358Z,42.90
2019-02-05T19:01:02.324Z,47.09
2019-02-05T19:02:02.290Z,42.79
2019-02-05T19:03:02.263Z,40.00
2019-02-05T19:04:02.783Z,36.79
2019-02-05T19:05:02.423Z,44.20
2019-02-05T19:06:02.190Z,37.90
2019-02-05T19:07:03.878Z,47.20
2019-02-05T19:08:02.536Z,54.40
2019-02-05T19:09:02.132Z,65.19
2019-02-05T19:10:02.745Z,71.50
2019-02-05T19:11:02.073Z,77.19
2019-02-05T19:12:04.879Z,90.09
2019-02-05T19:13:02.179Z,88.90
2019-02-05T19:14:02.704Z,100.09
2019-02-05T19:15:02.012Z,89.59
2019-02-05T19:16:02.661Z,70.09
2019-02-05T19:17:02.151Z,75.69
2019-02-05T19:18:02.059Z,63.59
2019-02-05T19:19:01.971Z,63.29
2019-02-05T19:20:01.854Z,71.59
2019-02-05T19:21:01.854Z,70.09
2019-02-05T19:22:01.718Z,58.50
2019-02-05T19:23:02.274Z,62.90
2019-02-05T19:24:02.015Z,72.30
2019-02-05T19:25:02.214Z,69.90
2019-02-05T19:26:01.963Z,72.69
2019-02-05T19:27:01.807Z,65.90
2019-02-05T19:28:01.653Z,65.80
2019-02-05T19:29:02.153Z,52.09
2019-02-05T19:30:01.605Z,50.29
2019-02-05T19:31:01.867Z,57.09
2019-02-05T19:32:01.557Z,48.70
2019-02-05T19:33:02.220Z,56.20
2019-02-05T19:34:01.472Z,51.59
2019-02-05T19:35:02.144Z,45.90
2019-02-05T19:36:02.311Z,30.70
2019-02-05T19:37:01.657Z,38.20
2019-02-05T19:38:01.825Z,37.70
2019-02-05T19:39:01.774Z,39.09
2019-02-05T19:40:01.377Z,39.70
2019-02-05T19:41:01.721Z,38.29
2019-02-05T19:42:01.321Z,36.50
2019-02-05T19:43:01.407Z,35.29
2019-02-05T19:44:01.943Z,31.39
2019-02-05T19:45:01.281Z,37.50
2019-02-05T19:46:01.234Z,40.40
2019-02-05T19:47:01.268Z,40.59
2019-02-05T19:48:01.740Z,31.60
2019-02-05T19:49:01.092Z,43.29
2019-02-05T19:50:01.860Z,32.40
2019-02-05T19:51:01.500Z,31.79
2019-02-05T19:52:01.057Z,26.50
2019-02-05T19:53:01.288Z,28.89
2019-02-05T19:54:00.990Z,32.20
2019-02-05T19:55:01.351Z,37.00
2019-02-05T19:56:01.105Z,31.20
2019-02-05T19:57:01.276Z,32.20
2019-02-05T19:58:00.985Z,35.40
2019-02-05T19:59:00.896Z,37.20
2019-02-05T20:00:00.878Z,29.29
2019-02-05T20:01:01.091Z,26.29
2019-02-05T20:02:01.068Z,28.89
2019-02-05T20:03:01.241Z,26.20
2019-02-05T20:04:01.026Z,24.89
2019-02-05T20:05:00.889Z,25.60
2019-02-05T20:06:00.817Z,27.70
2019-02-05T20:07:01.184Z,23.50
2019-02-05T20:08:01.095Z,22.29
2019-02-05T20:09:00.950Z,29.29
2019-02-05T20:10:00.547Z,28.79
2019-02-05T20:11:00.541Z,25.00
2019-02-05T20:12:00.899Z,30.60
2019-02-05T20:13:00.564Z,27.10
2019-02-05T20:14:00.485Z,30.50
2019-02-05T20:15:00.586Z,29.79
2019-02-05T20:16:00.858Z,30.79
2019-02-05T20:17:00.409Z,31.70
2019-02-05T20:18:00.432Z,36.09
2019-02-05T20:19:00.415Z,55.90
2019-02-05T20:20:00.389Z,49.29
2019-02-05T20:21:01.341Z,40.90
2019-02-05T20:22:00.269Z,47.20
2019-02-05T20:23:00.631Z,50.50
2019-02-05T20:24:00.509Z,44.20
2019-02-05T20:25:00.374Z,43.20
2019-02-05T20:26:00.254Z,52.29
2019-02-05T20:27:01.007Z,40.59
2019-02-05T20:28:00.182Z,40.59
2019-02-05T20:29:00.184Z,37.09
2019-02-05T20:30:00.377Z,33.40
2019-02-05T20:31:00.138Z,37.00
2019-02-05T20:32:00.501Z,38.70
2019-02-05T20:33:00.093Z,45.90
2019-02-05T20:34:00.121Z,65.19
2019-02-05T20:35:00.384Z,80.00
2019-02-05T20:36:00.126Z,63.00
2019-02-05T20:37:00.104Z,64.80
2019-02-05T20:38:00.374Z,56.00
2019-02-05T20:39:00.251Z,53.09
2019-02-05T20:40:00.343Z,46.59
2019-02-05T20:41:00.141Z,45.09
2019-02-05T20:41:59.946Z,45.59
2019-02-05T20:42:59.871Z,47.90
2019-02-05T20:44:00.066Z,40.00
2019-02-05T20:45:00.076Z,35.09
2019-02-05T20:45:59.967Z,39.20
2019-02-05T20:46:59.858Z,34.50
2019-02-05T20:47:59.693Z,38.79
2019-02-05T20:48:59.988Z,33.90
2019-02-05T20:49:59.715Z,36.50
2019-02-05T20:51:01.181Z,38.50
2019-02-05T20:51:59.756Z,39.59
2019-02-05T20:52:59.953Z,40.40
2019-02-05T20:53:59.629Z,38.59
2019-02-05T20:54:59.975Z,37.09
2019-02-05T20:56:00.256Z,32.00
2019-02-05T20:56:59.644Z,30.00
2019-02-05T20:57:59.455Z,29.00
2019-02-05T20:58:59.428Z,26.79
2019-02-05T20:59:59.961Z,26.89
2019-02-05T21:00:59.536Z,27.20
2019-02-05T21:02:00.691Z,23.89
2019-02-05T21:02:59.759Z,24.29
2019-02-05T21:04:01.554Z,23.60
2019-02-05T21:04:59.469Z,22.50
2019-02-05T21:05:59.508Z,23.70
2019-02-05T21:06:59.894Z,22.70
2019-02-05T21:07:59.660Z,23.10
2019-02-05T21:08:59.578Z,23.00
2019-02-05T21:09:59.539Z,24.29
2019-02-05T21:11:00.118Z,22.50
2019-02-05T21:11:59.156Z,19.39
2019-02-05T21:12:59.133Z,22.39
2019-02-05T21:13:59.660Z,21.10
2019-02-05T21:14:59.543Z,22.79
2019-02-05T21:15:59.155Z,23.60
2019-02-05T21:16:59.039Z,23.39
2019-02-05T21:17:59.653Z,21.70
2019-02-05T21:18:59.075Z,22.50
2019-02-05T21:19:59.033Z,21.89
2019-02-05T21:20:59.053Z,26.70
2019-02-05T21:21:59.399Z,23.20
2019-02-05T21:22:59.239Z,24.39
2019-02-05T21:23:59.501Z,25.39
2019-02-05T21:24:58.877Z,24.89
2019-02-05T21:25:58.977Z,25.00
2019-02-05T21:26:59.142Z,24.89
2019-02-05T21:27:59.047Z,23.50
2019-02-05T21:28:59.152Z,22.60
2019-02-05T21:29:59.048Z,24.89
2019-02-05T21:30:59.134Z,22.60
2019-02-05T21:31:58.887Z,22.60
2019-02-05T21:32:59.269Z,23.10
2019-02-05T21:33:58.897Z,26.10
2019-02-05T21:34:58.776Z,39.00
2019-02-05T21:35:58.913Z,53.00
2019-02-05T21:36:58.922Z,45.20
2019-02-05T21:37:59.098Z,38.79
2019-02-05T21:38:58.704Z,33.50
2019-02-05T21:40:02.569Z,35.50
2019-02-05T21:40:58.671Z,31.70
2019-02-05T21:41:58.652Z,41.29
2019-02-05T21:42:58.632Z,46.59
2019-02-05T21:43:58.524Z,55.09
2019-02-05T21:44:58.598Z,70.80
2019-02-05T21:46:00.926Z,71.19
2019-02-05T21:46:58.569Z,70.40
2019-02-05T21:47:58.553Z,79.09
2019-02-05T21:48:58.539Z,81.69
2019-02-05T21:49:58.530Z,71.09
2019-02-05T21:50:58.419Z,78.40
2019-02-05T21:51:58.400Z,80.19
2019-02-05T21:52:58.486Z,87.40
2019-02-05T21:53:58.455Z,81.59
2019-02-05T21:54:58.440Z,72.30
2019-02-05T21:55:58.321Z,67.90
2019-02-05T21:56:58.638Z,53.00
2019-02-05T21:57:58.374Z,43.59
2019-02-05T21:58:58.369Z,37.20
2019-02-05T21:59:58.329Z,32.59
2019-02-05T22:00:58.320Z,32.59
2019-02-05T22:01:58.381Z,28.50
2019-02-05T22:02:58.282Z,27.29
2019-02-05T22:03:58.364Z,30.20
2019-02-05T22:04:58.221Z,26.29
2019-02-05T22:05:58.252Z,29.60
2019-02-05T22:06:58.215Z,28.70
2019-02-05T22:07:58.195Z,28.60
2019-02-05T22:08:58.156Z,23.60
2019-02-05T22:09:58.160Z,24.89
2019-02-05T22:10:58.106Z,23.00
2019-02-05T22:11:58.070Z,25.10
2019-02-05T22:12:57.967Z,26.70
2019-02-05T22:13:58.036Z,23.70
2019-02-05T22:14:58.024Z,25.20
2019-02-05T22:15:58.000Z,25.79
2019-02-05T22:16:57.979Z,26.39
2019-02-05T22:17:57.949Z,26.39
2019-02-05T22:18:58.169Z,26.79
2019-02-05T22:19:57.896Z,25.50
2019-02-05T22:20:57.779Z,27.39
2019-02-05T22:21:57.849Z,26.70
2019-02-05T22:22:58.085Z,26.89
2019-02-05T22:23:57.709Z,28.29
2019-02-05T22:24:57.686Z,29.50
2019-02-05T22:25:57.768Z,26.60
2019-02-05T22:26:57.739Z,24.79
2019-02-05T22:27:57.723Z,24.79
2019-02-05T22:28:57.702Z,28.89
2019-02-05T22:29:57.680Z,24.79
2019-02-05T22:30:57.656Z,28.70
2019-02-05T22:31:57.633Z,25.10
2019-02-05T22:32:57.610Z,29.20
2019-02-05T22:33:57.498Z,26.29
2019-02-05T22:34:57.571Z,26.00
2019-02-05T22:35:57.454Z,22.79
2019-02-05T22:36:57.529Z,26.70
2019-02-05T22:37:57.412Z,27.70
2019-02-05T22:38:57.634Z,25.29
2019-02-05T22:39:57.466Z,26.00
2019-02-05T22:40:57.355Z,22.89
2019-02-05T22:41:57.427Z,22.50
2019-02-05T22:42:57.313Z,22.00
2019-02-05T22:43:57.389Z,25.00
2019-02-05T22:44:57.471Z,25.70
2019-02-05T22:45:57.349Z,24.20
2019-02-05T22:46:57.233Z,21.20
2019-02-05T22:47:57.303Z,25.20
2019-02-05T22:48:57.268Z,25.79
2019-02-05T22:49:57.260Z,24.60
2019-02-05T22:50:57.241Z,26.89
2019-02-05T22:51:57.131Z,24.10
2019-02-05T22:52:57.205Z,22.50
2019-02-05T22:53:57.091Z,21.60
2019-02-05T22:54:57.172Z,22.10
2019-02-05T22:55:57.152Z,20.89
2019-02-05T22:56:57.130Z,20.60
2019-02-05T22:57:57.267Z,27.10
2019-02-05T22:58:57.090Z,18.29
2019-02-05T22:59:57.066Z,20.70
2019-02-05T23:00:57.045Z,24.29
2019-02-05T23:01:57.020Z,23.89
2019-02-05T23:02:56.900Z,23.10
2019-02-05T23:03:56.974Z,29.20
2019-02-05T23:04:56.974Z,29.79
2019-02-05T23:05:56.841Z,27.20
2019-02-05T23:06:56.914Z,26.50
2019-02-05T23:07:56.983Z,42.70
2019-02-05T23:08:56.876Z,45.29
2019-02-05T23:09:56.850Z,52.09
2019-02-05T23:11:03.757Z,42.09
2019-02-05T23:11:57.919Z,36.79
2019-02-05T23:12:56.692Z,31.39
2019-02-05T23:13:56.759Z,36.59
2019-02-05T23:14:56.643Z,39.79
2019-02-05T23:15:56.714Z,41.90
2019-02-05T23:16:56.602Z,39.40
2019-02-05T23:17:56.674Z,32.40
2019-02-05T23:18:56.655Z,28.29
2019-02-05T23:19:56.646Z,31.10
2019-02-05T23:20:56.619Z,29.60
2019-02-05T23:21:56.597Z,23.79
2019-02-05T23:22:57.291Z,28.79
2019-02-05T23:23:56.556Z,37.00
2019-02-05T23:24:56.539Z,48.29
2019-02-05T23:25:56.429Z,68.00
2019-02-05T23:26:56.506Z,55.09
2019-02-05T23:27:56.487Z,60.29
2019-02-05T23:28:56.374Z,45.90
2019-02-05T23:29:56.456Z,32.79
2019-02-05T23:30:56.339Z,35.00
2019-02-05T23:31:56.323Z,37.29
2019-02-05T23:32:56.314Z,36.00
2019-02-05T23:33:56.392Z,35.50
2019-02-05T23:35:02.441Z,36.50
2019-02-05T23:35:57.465Z,37.79
2019-02-05T23:36:56.356Z,32.90
2019-02-05T23:37:56.249Z,36.29
2019-02-05T23:38:56.328Z,36.70
2019-02-05T23:39:56.394Z,33.20
2019-02-05T23:40:56.207Z,30.39
2019-02-05T23:41:56.194Z,27.10
2019-02-05T23:42:56.292Z,32.70
2019-02-05T23:43:56.264Z,27.50
2019-02-05T23:44:56.250Z,26.89
2019-02-05T23:46:01.550Z,22.39
2019-02-05T23:46:56.223Z,24.10
2019-02-05T23:47:56.199Z,21.79
2019-02-05T23:48:56.183Z,22.50
2019-02-05T23:49:56.070Z,24.70
2019-02-05T23:50:56.152Z,23.39
2019-02-05T23:51:56.036Z,23.50
2019-02-05T23:52:56.112Z,22.39
2019-02-05T23:53:56.099Z,20.29
2019-02-05T23:54:56.083Z,22.50
2019-02-05T23:55:56.066Z,21.70
2019-02-05T23:56:55.956Z,20.20
2019-02-05T23:57:56.035Z,19.70
2019-02-05T23:58:56.117Z,23.50
2019-02-05T23:59:55.999Z,20.29
